createdAt,value
2022-09-02T00:02:25.284Z,7.25
2022-09-02T00:04:52.751Z,7.45
2022-09-02T00:07:20.247Z,6.47
2022-09-02T00:09:47.629Z,6.72
2022-09-02T00:12:15.552Z,6.75
2022-09-02T00:14:43.102Z,6.50
2022-09-02T00:17:10.540Z,7.40
2022-09-02T00:19:38.519Z,5.25
2022-09-02T00:22:06.057Z,6.25
2022-09-02T00:24:33.649Z,5.00
2022-09-02T00:27:01.568Z,5.63
2022-09-02T00:29:30.973Z,6.55
2022-09-02T00:31:59.032Z,6.22
2022-09-02T00:34:26.675Z,7.13
2022-09-02T00:36:54.081Z,6.70
2022-09-02T00:39:21.557Z,7.72
2022-09-02T00:41:48.980Z,8.52
2022-09-02T00:44:19.062Z,6.35
2022-09-02T00:46:47.716Z,6.03
2022-09-02T00:49:26.452Z,6.22
2022-09-02T00:52:00.383Z,6.28
2022-09-02T00:54:31.365Z,5.85
2022-09-02T00:57:01.344Z,5.60
2022-09-02T01:00:10.016Z,4.93
2022-09-02T01:02:40.878Z,6.22
2022-09-02T01:07:39.982Z,5.43
2022-09-02T01:10:10.971Z,5.60
2022-09-02T01:15:09.227Z,5.40
2022-09-02T01:20:12.120Z,5.30
2022-09-02T01:22:42.167Z,5.20
2022-09-02T01:25:14.122Z,5.33
2022-09-02T01:27:42.083Z,4.05
2022-09-02T01:30:13.424Z,4.00
2022-09-02T01:32:40.933Z,4.10
2022-09-02T01:35:08.676Z,4.00
2022-09-02T01:37:38.714Z,4.40
2022-09-02T01:40:08.072Z,4.03
2022-09-02T01:42:35.779Z,4.03
2022-09-02T01:45:04.916Z,3.80
2022-09-02T01:47:32.931Z,5.47
2022-09-02T01:50:00.565Z,4.25
2022-09-02T01:52:29.317Z,4.50
2022-09-02T01:54:58.029Z,4.30
2022-09-02T01:57:25.482Z,4.32
2022-09-02T01:59:54.539Z,4.43
2022-09-02T02:02:22.875Z,4.20
2022-09-02T02:04:51.006Z,4.80
2022-09-02T02:07:20.396Z,4.35
2022-09-02T02:09:48.526Z,4.85
2022-09-02T02:12:16.976Z,4.90
2022-09-02T02:14:44.762Z,4.03
2022-09-02T02:17:12.879Z,3.92
2022-09-02T02:19:40.775Z,4.78
2022-09-02T02:22:08.289Z,5.68
2022-09-02T02:24:35.816Z,4.00
2022-09-02T02:27:03.920Z,5.05
2022-09-02T02:29:31.399Z,4.63
2022-09-02T02:31:58.822Z,4.78
2022-09-02T02:34:26.281Z,4.20
2022-09-02T02:36:53.753Z,4.18
2022-09-02T02:39:21.321Z,4.50
2022-09-02T02:41:48.773Z,4.90
2022-09-02T02:44:16.340Z,3.78
2022-09-02T02:46:44.287Z,4.03
2022-09-02T02:49:12.004Z,3.90
2022-09-02T02:51:39.403Z,3.80
2022-09-02T02:54:06.861Z,4.03
2022-09-02T02:56:34.905Z,3.85
2022-09-02T02:59:03.560Z,4.07
2022-09-02T03:01:32.356Z,4.05
2022-09-02T03:04:00.056Z,3.90
2022-09-02T03:06:27.471Z,4.03
2022-09-02T03:08:54.874Z,3.53
2022-09-02T03:11:22.670Z,3.83
2022-09-02T03:13:51.164Z,3.70
2022-09-02T03:16:19.981Z,3.72
2022-09-02T03:18:49.295Z,3.60
2022-09-02T03:21:18.176Z,5.20
2022-09-02T03:23:46.698Z,3.42
2022-09-02T03:26:20.451Z,3.78
2022-09-02T03:28:49.417Z,3.50
2022-09-02T03:31:20.356Z,3.65
2022-09-02T03:36:23.829Z,3.70
2022-09-02T03:38:51.915Z,4.05
2022-09-02T03:41:19.462Z,3.28
2022-09-02T03:43:47.254Z,3.35
2022-09-02T03:46:14.799Z,3.17
2022-09-02T03:48:42.551Z,3.80
2022-09-02T03:51:10.065Z,3.67
2022-09-02T03:53:39.122Z,3.17
2022-09-02T03:56:15.048Z,3.63
2022-09-02T03:58:45.495Z,3.30
2022-09-02T04:01:18.859Z,3.75
2022-09-02T04:03:47.067Z,4.00
2022-09-02T04:06:17.323Z,3.75
2022-09-02T04:08:45.116Z,3.78
2022-09-02T04:11:19.027Z,4.55
2022-09-02T04:13:48.873Z,3.38
2022-09-02T04:16:19.347Z,2.83
2022-09-02T04:18:47.568Z,5.30
2022-09-02T04:21:16.059Z,3.75
2022-09-02T04:23:43.582Z,3.17
2022-09-02T04:26:13.489Z,3.78
2022-09-02T04:28:41.500Z,4.50
2022-09-02T04:31:11.869Z,3.20
2022-09-02T04:33:40.319Z,3.17
2022-09-02T04:36:10.522Z,4.22
2022-09-02T04:38:42.342Z,3.75
2022-09-02T04:41:21.611Z,3.70
2022-09-02T04:43:55.645Z,3.25
2022-09-02T04:46:23.020Z,2.95
2022-09-02T04:49:02.032Z,3.30
2022-09-02T04:51:29.828Z,3.38
2022-09-02T04:53:57.493Z,4.25
2022-09-02T04:56:27.808Z,3.60
2022-09-02T04:58:55.911Z,3.42
2022-09-02T05:01:26.812Z,4.15
2022-09-02T05:06:27.246Z,4.55
2022-09-02T05:08:56.365Z,4.18
2022-09-02T05:11:28.521Z,3.30
2022-09-02T05:13:59.418Z,3.83
2022-09-02T05:16:30.391Z,3.63
2022-09-02T05:21:26.021Z,3.92
2022-09-02T05:23:54.739Z,3.83
2022-09-02T05:26:22.743Z,3.67
2022-09-02T05:28:51.100Z,3.40
2022-09-02T05:31:20.599Z,3.60
2022-09-02T05:33:48.809Z,3.42
2022-09-02T05:36:20.456Z,3.72
2022-09-02T05:38:49.059Z,3.42
2022-09-02T05:41:19.817Z,3.63
2022-09-02T05:43:48.660Z,3.90
2022-09-02T05:46:18.246Z,4.53
2022-09-02T05:49:05.337Z,3.90
2022-09-02T05:51:37.441Z,4.07
2022-09-02T05:54:04.899Z,3.78
2022-09-02T05:56:32.317Z,3.70
2022-09-02T05:59:01.710Z,4.25
2022-09-02T06:01:30.178Z,3.42
2022-09-02T06:03:59.353Z,3.90
2022-09-02T06:06:26.728Z,3.67
2022-09-02T06:08:54.239Z,3.70
2022-09-02T06:11:22.187Z,3.80
2022-09-02T06:13:51.782Z,4.80
2022-09-02T06:16:21.352Z,4.07
2022-09-02T06:18:50.563Z,4.33
2022-09-02T06:21:20.708Z,5.80
2022-09-02T06:23:48.510Z,4.07
2022-09-02T06:26:17.065Z,4.65
2022-09-02T06:28:44.908Z,3.92
2022-09-02T06:31:15.972Z,4.43
2022-09-02T06:33:45.122Z,4.72
2022-09-02T06:36:17.932Z,4.30
2022-09-02T06:38:47.624Z,4.47
2022-09-02T06:41:18.067Z,4.40
2022-09-02T06:43:46.147Z,4.70
2022-09-02T06:46:23.122Z,4.75
2022-09-02T06:48:51.243Z,5.13
2022-09-02T06:51:21.943Z,5.13
2022-09-02T06:53:49.640Z,3.60
2022-09-02T06:56:17.351Z,5.80
2022-09-02T06:58:45.024Z,4.22
2022-09-02T07:01:25.723Z,4.05
2022-09-02T07:04:12.057Z,4.30
2022-09-02T07:06:42.296Z,4.38
2022-09-02T07:09:11.583Z,6.35
2022-09-02T07:11:39.406Z,4.03
2022-09-02T07:14:06.921Z,4.40
2022-09-02T07:16:42.291Z,5.72
2022-09-02T07:19:15.061Z,4.10
2022-09-02T07:21:43.631Z,4.40
2022-09-02T07:24:14.089Z,3.85
2022-09-02T07:26:42.706Z,3.95
2022-09-02T07:29:10.374Z,4.45
2022-09-02T07:31:39.792Z,4.30
2022-09-02T07:34:10.044Z,5.15
2022-09-02T07:36:37.989Z,4.30
2022-09-02T07:39:08.034Z,5.07
2022-09-02T07:41:36.575Z,4.40
2022-09-02T07:44:05.923Z,4.20
2022-09-02T07:46:34.055Z,5.90
2022-09-02T07:49:04.142Z,4.47
2022-09-02T07:51:33.328Z,4.55
2022-09-02T07:54:02.007Z,3.78
2022-09-02T07:56:29.533Z,4.25
2022-09-02T07:58:56.960Z,4.18
2022-09-02T08:01:24.891Z,4.03
2022-09-02T08:03:53.757Z,3.95
2022-09-02T08:06:33.680Z,4.63
2022-09-02T08:09:04.970Z,4.03
2022-09-02T08:11:34.981Z,3.83
2022-09-02T08:14:02.460Z,4.25
2022-09-02T08:16:30.120Z,4.70
2022-09-02T08:18:58.397Z,4.28
2022-09-02T08:21:25.813Z,4.00
2022-09-02T08:23:53.218Z,4.00
2022-09-02T08:26:21.441Z,4.15
2022-09-02T08:28:48.907Z,3.80
2022-09-02T08:31:16.620Z,4.47
2022-09-02T08:33:44.903Z,3.83
2022-09-02T08:36:15.019Z,4.07
2022-09-02T08:38:43.968Z,4.67
2022-09-02T08:41:25.319Z,4.82
2022-09-02T08:43:57.188Z,4.53
2022-09-02T08:46:27.348Z,3.97
2022-09-02T08:49:08.415Z,4.63
2022-09-02T08:51:56.788Z,4.45
2022-09-02T08:54:40.567Z,4.15
2022-09-02T08:57:10.509Z,6.70
2022-09-02T09:02:24.570Z,4.68
2022-09-02T09:05:20.277Z,4.20
2022-09-02T09:08:34.335Z,4.07
2022-09-02T09:11:38.665Z,4.22
2022-09-02T09:14:13.698Z,3.95
2022-09-02T09:16:58.151Z,3.75
2022-09-02T09:19:38.490Z,5.35
2022-09-02T09:22:05.962Z,4.35
2022-09-02T09:24:41.463Z,4.97
2022-09-02T09:27:17.457Z,4.13
2022-09-02T09:29:45.065Z,3.28
2022-09-02T09:32:47.822Z,4.15
2022-09-02T09:35:17.430Z,3.92
2022-09-02T09:37:52.793Z,4.35
2022-09-02T09:40:23.214Z,4.22
2022-09-02T09:42:56.892Z,4.10
2022-09-02T09:45:41.851Z,4.63
2022-09-02T09:48:29.931Z,4.43
2022-09-02T09:50:57.352Z,3.55
2022-09-02T09:53:29.989Z,4.65
2022-09-02T09:56:17.780Z,3.72
2022-09-02T09:58:47.584Z,4.50
2022-09-02T10:01:33.130Z,3.83
2022-09-02T10:04:02.465Z,3.92
2022-09-02T10:06:30.780Z,3.42
2022-09-02T10:09:03.424Z,3.53
2022-09-02T10:11:34.054Z,2.95
2022-09-02T10:14:04.163Z,3.92
2022-09-02T10:16:57.888Z,3.58
2022-09-02T10:19:47.052Z,4.03
2022-09-02T10:22:20.424Z,3.65
2022-09-02T10:25:42.650Z,3.58
2022-09-02T10:28:26.457Z,2.97
2022-09-02T10:30:59.981Z,3.20
2022-09-02T10:33:27.325Z,3.08
2022-09-02T10:36:17.185Z,3.40
2022-09-02T10:38:50.826Z,3.28
2022-09-02T10:41:38.042Z,2.83
2022-09-02T10:44:24.282Z,2.80
2022-09-02T10:47:01.366Z,3.08
2022-09-02T10:49:37.796Z,3.70
2022-09-02T10:52:42.539Z,4.03
2022-09-02T10:55:39.789Z,3.50
2022-09-02T10:58:30.004Z,3.13
2022-09-02T11:00:57.718Z,3.08
2022-09-02T11:03:38.738Z,3.60
2022-09-02T11:06:20.068Z,2.88
2022-09-02T11:08:49.771Z,3.20
2022-09-02T11:11:22.561Z,3.85
2022-09-02T11:13:52.676Z,2.90
2022-09-02T11:16:42.975Z,2.80
2022-09-02T11:19:19.469Z,1.80
2022-09-02T11:22:28.735Z,3.53
2022-09-02T11:25:00.638Z,2.25
2022-09-02T11:27:52.506Z,2.08
2022-09-02T11:30:23.694Z,2.40
2022-09-02T11:33:13.050Z,3.25
2022-09-02T11:35:40.842Z,2.60
2022-09-02T11:38:20.142Z,2.50
2022-09-02T11:41:38.074Z,3.08
2022-09-02T11:44:43.266Z,2.25
2022-09-02T11:47:29.288Z,1.75
2022-09-02T11:50:19.432Z,3.50
2022-09-02T11:53:13.771Z,2.60
2022-09-02T11:55:47.044Z,2.15
2022-09-02T11:58:37.780Z,2.55
2022-09-02T12:04:59.416Z,3.50
2022-09-02T12:07:12.987Z,2.97
2022-09-02T12:09:55.475Z,2.38
2022-09-02T12:12:38.382Z,2.35
2022-09-02T12:15:06.400Z,2.38
2022-09-02T12:17:37.851Z,3.03
2022-09-02T12:20:08.312Z,2.35
2022-09-02T12:22:40.598Z,2.35
2022-09-02T12:25:28.507Z,2.60
2022-09-02T12:28:21.457Z,2.75
2022-09-02T12:31:08.800Z,2.60
2022-09-02T12:33:39.406Z,3.08
2022-09-02T12:38:38.809Z,2.92
2022-09-02T12:44:02.148Z,2.65
2022-09-02T12:46:48.362Z,2.33
2022-09-02T12:49:37.847Z,2.67
2022-09-02T12:52:10.592Z,2.65
2022-09-02T12:54:49.463Z,2.42
2022-09-02T12:57:18.641Z,2.90
2022-09-02T12:59:47.559Z,2.60
2022-09-02T13:02:52.270Z,3.20
2022-09-02T13:05:38.212Z,4.10
2022-09-02T13:08:32.455Z,2.90
2022-09-02T13:11:21.348Z,2.65
2022-09-02T13:13:57.296Z,2.60
2022-09-02T13:16:54.103Z,3.53
2022-09-02T13:19:49.312Z,6.60
2022-09-02T13:22:24.022Z,3.40
2022-09-02T13:25:18.521Z,3.00
2022-09-02T13:28:18.723Z,3.58
2022-09-02T13:31:04.710Z,3.35
2022-09-02T13:33:32.816Z,3.33
2022-09-02T13:36:00.318Z,3.03
2022-09-02T13:38:29.783Z,3.10
2022-09-02T13:40:57.365Z,3.15
2022-09-02T13:43:27.147Z,3.35
2022-09-02T13:46:02.867Z,3.70
2022-09-02T13:48:33.967Z,3.70
2022-09-02T13:51:13.369Z,3.50
2022-09-02T13:53:59.444Z,3.78
2022-09-02T13:56:32.915Z,4.28
2022-09-02T13:59:00.296Z,4.32
2022-09-02T14:01:31.387Z,3.88
2022-09-02T14:04:02.924Z,4.10
2022-09-02T14:06:36.567Z,4.70
2022-09-02T14:09:10.440Z,3.67
2022-09-02T14:11:44.186Z,3.83
2022-09-02T14:14:17.298Z,5.38
2022-09-02T14:16:44.933Z,4.47
2022-09-02T14:19:23.499Z,4.68
2022-09-02T14:21:56.292Z,3.95
2022-09-02T14:24:37.157Z,3.97
2022-09-02T14:29:44.712Z,3.20
2022-09-02T14:32:21.428Z,3.92
2022-09-02T14:35:08.351Z,3.35
2022-09-02T14:37:55.890Z,3.42
2022-09-02T14:40:40.528Z,3.58
2022-09-02T14:43:16.310Z,3.22
2022-09-02T14:45:47.789Z,3.60
2022-09-02T14:48:26.900Z,3.78
2022-09-02T14:51:03.337Z,3.85
2022-09-02T14:53:31.867Z,3.80
2022-09-02T14:56:00.078Z,4.78
2022-09-02T14:58:28.432Z,4.75
2022-09-02T15:00:59.510Z,4.15
2022-09-02T15:03:28.390Z,4.70
2022-09-02T15:05:56.224Z,5.28
2022-09-02T15:08:23.938Z,5.20
2022-09-02T15:10:54.302Z,5.50
2022-09-02T15:13:32.548Z,5.22
2022-09-02T15:16:00.744Z,5.07
2022-09-02T15:18:28.260Z,5.28
2022-09-02T15:20:55.728Z,5.20
2022-09-02T15:23:24.141Z,5.10
2022-09-02T15:25:53.904Z,6.00
2022-09-02T15:28:21.322Z,5.88
2022-09-02T15:30:48.797Z,6.50
2022-09-02T15:33:17.710Z,6.70
2022-09-02T15:35:47.394Z,7.07
2022-09-02T15:38:14.927Z,6.93
2022-09-02T15:40:42.496Z,6.85
2022-09-02T15:43:09.876Z,6.88
2022-09-02T15:45:45.761Z,6.90
2022-09-02T15:48:13.452Z,6.72
2022-09-02T15:50:40.865Z,6.60
2022-09-02T15:53:08.366Z,7.47
2022-09-02T15:55:35.806Z,7.47
2022-09-02T15:58:03.169Z,7.75
2022-09-02T16:00:32.011Z,8.30
2022-09-02T16:03:00.904Z,7.10
2022-09-02T16:05:28.289Z,7.35
2022-09-02T16:07:55.927Z,7.22
2022-09-02T16:10:23.368Z,6.65
2022-09-02T16:12:51.083Z,6.25
2022-09-02T16:15:18.805Z,5.63
2022-09-02T16:17:46.401Z,8.43
2022-09-02T16:20:15.320Z,6.28
2022-09-02T16:22:45.449Z,7.93
2022-09-02T16:25:12.854Z,6.35
2022-09-02T16:27:52.310Z,6.95
2022-09-02T16:30:20.749Z,9.75
2022-09-02T16:32:50.686Z,6.85
2022-09-02T16:35:18.220Z,7.00
2022-09-02T16:37:45.626Z,7.00
2022-09-02T16:40:21.715Z,7.13
2022-09-02T16:42:49.755Z,7.88
2022-09-02T16:45:17.270Z,7.32
2022-09-02T16:47:44.727Z,7.60
2022-09-02T16:50:12.695Z,6.72
2022-09-02T16:52:41.127Z,7.63
2022-09-02T16:55:08.733Z,7.85
2022-09-02T16:57:36.145Z,7.55
2022-09-02T17:00:04.450Z,7.90
2022-09-02T17:02:31.970Z,7.63
2022-09-02T17:04:59.464Z,7.88
2022-09-02T17:07:26.893Z,8.77
2022-09-02T17:09:54.276Z,7.80
2022-09-02T17:12:21.667Z,8.82
2022-09-02T17:14:49.149Z,9.18
2022-09-02T17:17:17.237Z,9.27
2022-09-02T17:19:44.795Z,9.95
2022-09-02T17:22:12.253Z,9.85
2022-09-02T17:24:41.994Z,9.25
2022-09-02T17:27:09.608Z,9.40
2022-09-02T17:29:52.412Z,8.88
2022-09-02T17:32:20.557Z,8.15
2022-09-02T17:34:49.639Z,8.88
2022-09-02T17:37:17.226Z,8.40
2022-09-02T17:39:46.656Z,7.93
2022-09-02T17:42:15.286Z,9.38
2022-09-02T17:44:42.934Z,9.48
2022-09-02T17:47:16.574Z,9.85
2022-09-02T17:49:44.655Z,9.45
2022-09-02T17:52:23.863Z,9.38
2022-09-02T17:54:54.124Z,10.30
2022-09-02T17:57:43.181Z,9.88
2022-09-02T18:00:13.862Z,10.20
2022-09-02T18:03:13.395Z,10.80
2022-09-02T18:05:52.090Z,20.48
2022-09-02T18:08:33.733Z,10.57
2022-09-02T18:11:04.538Z,11.30
2022-09-02T18:16:25.735Z,10.18
2022-09-02T18:19:16.317Z,10.18
2022-09-02T18:22:14.604Z,10.73
2022-09-02T18:25:24.627Z,11.32
2022-09-02T18:28:27.034Z,10.27
2022-09-02T18:31:22.567Z,12.27
2022-09-02T18:34:32.349Z,12.52
2022-09-02T18:37:21.455Z,11.38
2022-09-02T18:39:57.362Z,12.25
2022-09-02T18:42:59.067Z,12.25
2022-09-02T18:45:35.630Z,11.70
2022-09-02T18:48:10.260Z,11.52
2022-09-02T18:50:50.795Z,10.48
2022-09-02T18:53:28.684Z,10.63
2022-09-02T18:55:58.011Z,11.40
2022-09-02T18:58:42.253Z,9.82
2022-09-02T19:01:24.499Z,10.13
2022-09-02T19:03:52.354Z,10.23
2022-09-02T19:06:22.671Z,10.27
2022-09-02T19:09:00.993Z,19.27
2022-09-02T19:11:33.285Z,12.15
2022-09-02T19:14:12.565Z,10.68
2022-09-02T19:16:40.164Z,13.23
2022-09-02T19:19:08.026Z,17.05
2022-09-02T19:21:45.683Z,13.00
2022-09-02T19:24:44.915Z,12.80
2022-09-02T19:27:25.213Z,12.90
2022-09-02T19:29:58.265Z,14.05
2022-09-02T19:32:33.415Z,14.48
2022-09-02T19:35:04.729Z,17.23
2022-09-02T19:37:32.140Z,16.80
2022-09-02T19:40:04.967Z,18.45
2022-09-02T19:42:33.281Z,18.73
2022-09-02T19:45:00.713Z,17.70
2022-09-02T19:50:21.281Z,18.77
2022-09-02T19:52:49.787Z,19.33
2022-09-02T19:55:18.801Z,21.08
2022-09-02T19:57:46.418Z,20.80
2022-09-02T20:00:15.007Z,20.75
2022-09-02T20:02:43.055Z,21.95
2022-09-02T20:05:12.909Z,21.73
2022-09-02T20:07:40.970Z,21.98
2022-09-02T20:10:09.054Z,22.98
2022-09-02T20:12:36.879Z,23.23
2022-09-02T20:15:06.761Z,21.95
2022-09-02T20:17:34.681Z,22.00
2022-09-02T20:20:12.033Z,25.25
2022-09-02T20:22:39.435Z,22.30
2022-09-02T20:25:07.139Z,23.33
2022-09-02T20:27:47.438Z,23.15
2022-09-02T20:30:17.359Z,22.98
2022-09-02T20:33:01.974Z,21.63
2022-09-02T20:36:08.698Z,23.48
2022-09-02T20:38:59.409Z,24.13
2022-09-02T20:41:55.223Z,24.52
2022-09-02T20:44:29.935Z,25.30
2022-09-02T20:47:16.364Z,24.50
2022-09-02T20:49:55.647Z,24.45
2022-09-02T20:52:53.319Z,24.23
2022-09-02T20:55:29.942Z,26.35
2022-09-02T20:58:22.787Z,27.45
2022-09-02T21:01:16.286Z,26.83
2022-09-02T21:04:05.497Z,25.42
2022-09-02T21:06:37.766Z,29.70
2022-09-02T21:09:42.655Z,27.55
2022-09-02T21:12:22.036Z,25.30
2022-09-02T21:14:56.033Z,25.02
2022-09-02T21:17:51.236Z,27.38
2022-09-02T21:20:29.763Z,26.92
2022-09-02T21:23:01.179Z,22.23
2022-09-02T21:25:36.093Z,19.50
2022-09-02T21:28:15.427Z,14.75
2022-09-02T21:30:48.452Z,15.02
2022-09-02T21:33:17.424Z,13.48
2022-09-02T21:35:50.138Z,15.27
2022-09-02T21:38:24.613Z,14.18
2022-09-02T21:41:28.942Z,13.93
2022-09-02T21:44:05.195Z,13.93
2022-09-02T21:46:58.321Z,12.70
2022-09-02T21:49:40.836Z,14.60
2022-09-02T21:52:45.629Z,12.52
2022-09-02T21:55:50.786Z,15.77
2022-09-02T21:58:59.260Z,10.10
2022-09-02T22:01:44.629Z,10.15
2022-09-02T22:04:41.391Z,11.13
2022-09-02T22:07:18.979Z,10.02
2022-09-02T22:09:58.800Z,10.48
2022-09-02T22:12:26.393Z,10.85
2022-09-02T22:15:01.947Z,9.75
2022-09-02T22:17:56.168Z,9.05
2022-09-02T22:20:31.450Z,10.70
2022-09-02T22:23:05.188Z,16.17
2022-09-02T22:25:38.169Z,9.70
2022-09-02T22:28:14.490Z,8.50
2022-09-02T22:30:47.793Z,8.65
2022-09-02T22:33:21.055Z,11.40
2022-09-02T22:35:55.035Z,7.80
2022-09-02T22:38:52.147Z,7.80
2022-09-02T22:41:43.743Z,7.43
2022-09-02T22:44:20.450Z,6.93
2022-09-02T22:47:10.600Z,17.67
2022-09-02T22:50:09.102Z,8.30
2022-09-02T22:52:49.439Z,7.63
2022-09-02T22:55:34.452Z,7.03
2022-09-02T22:58:11.092Z,6.78
2022-09-02T23:00:47.181Z,7.03
2022-09-02T23:03:25.158Z,7.93
2022-09-02T23:06:19.895Z,8.77
2022-09-02T23:08:49.010Z,7.60
2022-09-02T23:11:28.367Z,7.07
2022-09-02T23:14:11.136Z,8.25
2022-09-02T23:16:45.218Z,8.05
2022-09-02T23:19:44.386Z,7.40
2022-09-02T23:22:35.102Z,9.20
2022-09-02T23:25:41.897Z,9.32
2022-09-02T23:28:15.150Z,8.90
2022-09-02T23:31:01.172Z,11.90
2022-09-02T23:33:38.294Z,11.82
2022-09-02T23:36:36.067Z,10.60
2022-09-02T23:39:16.198Z,11.43
2022-09-02T23:41:47.369Z,11.88
2022-09-02T23:44:14.936Z,12.45
2022-09-02T23:47:28.933Z,11.85
2022-09-02T23:50:08.328Z,10.73
2022-09-02T23:52:56.340Z,15.27
2022-09-02T23:55:51.134Z,12.05
2022-09-02T23:58:36.678Z,13.27
